sensor_id;sensor_type;location;lat;lon;timestamp;P1;P2;P0
69746;PMS7003;57018;50.278;19.134;2022-08-06T00:01:08;38.50;33.50;22.75
69746;PMS7003;57018;50.278;19.134;2022-08-06T00:03:34;40.00;36.25;23.25
69746;PMS7003;57018;50.278;19.134;2022-08-06T00:06:00;39.00;34.75;22.25
69746;PMS7003;57018;50.278;19.134;2022-08-06T00:08:26;35.75;32.00;21.75
69746;PMS7003;57018;50.278;19.134;2022-08-06T00:10:52;44.50;37.75;25.50
69746;PMS7003;57018;50.278;19.134;2022-08-06T00:13:18;33.25;32.00;23.25
69746;PMS7003;57018;50.278;19.134;2022-08-06T00:15:44;43.50;38.00;24.75
69746;PMS7003;57018;50.278;19.134;2022-08-06T00:18:11;50.25;40.25;27.00
69746;PMS7003;57018;50.278;19.134;2022-08-06T00:20:37;42.75;37.50;24.50
69746;PMS7003;57018;50.278;19.134;2022-08-06T00:23:03;45.25;37.50;25.25
69746;PMS7003;57018;50.278;19.134;2022-08-06T00:25:29;40.25;36.50;24.25
69746;PMS7003;57018;50.278;19.134;2022-08-06T00:27:55;48.75;38.50;26.00
69746;PMS7003;57018;50.278;19.134;2022-08-06T00:30:21;40.00;35.50;24.00
69746;PMS7003;57018;50.278;19.134;2022-08-06T00:32:47;35.25;34.00;23.00
69746;PMS7003;57018;50.278;19.134;2022-08-06T00:35:14;41.75;37.75;25.50
69746;PMS7003;57018;50.278;19.134;2022-08-06T00:37:40;42.00;37.50;24.75
69746;PMS7003;57018;50.278;19.134;2022-08-06T00:40:07;37.25;33.75;21.25
69746;PMS7003;57018;50.278;19.134;2022-08-06T00:42:34;36.00;34.25;21.50
69746;PMS7003;57018;50.278;19.134;2022-08-06T00:45:00;39.75;34.75;24.50
69746;PMS7003;57018;50.278;19.134;2022-08-06T00:47:26;41.00;36.00;25.00
69746;PMS7003;57018;50.278;19.134;2022-08-06T00:49:52;41.50;35.25;23.75
69746;PMS7003;57018;50.278;19.134;2022-08-06T00:52:18;44.25;38.00;24.75
69746;PMS7003;57018;50.278;19.134;2022-08-06T00:54:44;41.25;36.00;23.75
69746;PMS7003;57018;50.278;19.134;2022-08-06T00:57:11;36.00;34.00;22.75
69746;PMS7003;57018;50.278;19.134;2022-08-06T00:59:37;36.50;32.50;21.50
69746;PMS7003;57018;50.278;19.134;2022-08-06T01:02:03;44.75;37.25;24.50
69746;PMS7003;57018;50.278;19.134;2022-08-06T01:04:29;48.75;38.75;25.50
69746;PMS7003;57018;50.278;19.134;2022-08-06T01:06:56;46.25;37.00;25.50
69746;PMS7003;57018;50.278;19.134;2022-08-06T01:09:22;44.25;37.00;24.50
69746;PMS7003;57018;50.278;19.134;2022-08-06T01:11:48;46.75;39.00;26.75
69746;PMS7003;57018;50.278;19.134;2022-08-06T01:14:14;41.50;37.75;23.75
69746;PMS7003;57018;50.278;19.134;2022-08-06T01:16:46;39.25;34.00;23.75
69746;PMS7003;57018;50.278;19.134;2022-08-06T01:19:22;40.25;34.25;23.50
69746;PMS7003;57018;50.278;19.134;2022-08-06T01:21:56;49.00;38.25;24.75
69746;PMS7003;57018;50.278;19.134;2022-08-06T01:30:18;44.75;35.50;25.25
69746;PMS7003;57018;50.278;19.134;2022-08-06T01:32:48;44.25;36.75;24.25
69746;PMS7003;57018;50.278;19.134;2022-08-06T01:35:17;44.50;38.25;25.00
69746;PMS7003;57018;50.278;19.134;2022-08-06T01:37:48;43.25;37.50;25.00
69746;PMS7003;57018;50.278;19.134;2022-08-06T01:40:19;42.25;36.25;24.00
69746;PMS7003;57018;50.278;19.134;2022-08-06T01:42:48;47.25;37.75;25.75
69746;PMS7003;57018;50.278;19.134;2022-08-06T01:45:17;51.25;41.00;26.25
69746;PMS7003;57018;50.278;19.134;2022-08-06T01:47:47;48.75;37.75;25.00
69746;PMS7003;57018;50.278;19.134;2022-08-06T01:50:16;37.00;33.00;24.50
69746;PMS7003;57018;50.278;19.134;2022-08-06T01:52:43;47.75;38.75;25.50
69746;PMS7003;57018;50.278;19.134;2022-08-06T01:55:16;44.75;38.50;25.00
69746;PMS7003;57018;50.278;19.134;2022-08-06T01:57:46;47.00;39.50;28.50
69746;PMS7003;57018;50.278;19.134;2022-08-06T02:00:17;49.75;39.25;26.25
69746;PMS7003;57018;50.278;19.134;2022-08-06T02:02:44;53.75;43.75;29.25
69746;PMS7003;57018;50.278;19.134;2022-08-06T02:05:12;51.00;42.75;30.25
69746;PMS7003;57018;50.278;19.134;2022-08-06T02:07:41;52.75;44.00;29.75
69746;PMS7003;57018;50.278;19.134;2022-08-06T02:10:10;53.00;43.50;30.75
69746;PMS7003;57018;50.278;19.134;2022-08-06T02:12:39;55.75;43.50;29.25
69746;PMS7003;57018;50.278;19.134;2022-08-06T02:15:15;54.25;44.75;30.00
69746;PMS7003;57018;50.278;19.134;2022-08-06T02:17:47;55.75;46.50;30.50
69746;PMS7003;57018;50.278;19.134;2022-08-06T02:20:21;50.25;40.50;29.00
69746;PMS7003;57018;50.278;19.134;2022-08-06T02:22:49;56.50;45.75;30.50
69746;PMS7003;57018;50.278;19.134;2022-08-06T02:25:18;52.75;44.00;30.50
69746;PMS7003;57018;50.278;19.134;2022-08-06T02:27:47;49.00;40.75;26.50
69746;PMS7003;57018;50.278;19.134;2022-08-06T02:30:16;48.50;40.00;27.75
69746;PMS7003;57018;50.278;19.134;2022-08-06T02:32:43;52.00;41.00;28.75
69746;PMS7003;57018;50.278;19.134;2022-08-06T02:35:10;49.25;38.50;27.50
69746;PMS7003;57018;50.278;19.134;2022-08-06T02:37:38;41.00;36.25;24.75
69746;PMS7003;57018;50.278;19.134;2022-08-06T02:40:16;47.25;39.50;26.00
69746;PMS7003;57018;50.278;19.134;2022-08-06T02:42:47;41.00;35.00;24.00
69746;PMS7003;57018;50.278;19.134;2022-08-06T02:45:19;44.75;37.50;24.75
69746;PMS7003;57018;50.278;19.134;2022-08-06T02:47:57;40.00;35.75;24.25
69746;PMS7003;57018;50.278;19.134;2022-08-06T02:50:30;41.00;36.00;23.50
69746;PMS7003;57018;50.278;19.134;2022-08-06T02:53:03;40.25;36.25;24.50
69746;PMS7003;57018;50.278;19.134;2022-08-06T02:55:30;41.75;34.50;23.75
69746;PMS7003;57018;50.278;19.134;2022-08-06T02:58:19;35.50;34.00;22.50
69746;PMS7003;57018;50.278;19.134;2022-08-06T03:00:47;38.00;34.75;24.00
69746;PMS7003;57018;50.278;19.134;2022-08-06T03:03:16;35.25;31.75;22.00
69746;PMS7003;57018;50.278;19.134;2022-08-06T03:05:47;34.25;33.00;22.75
69746;PMS7003;57018;50.278;19.134;2022-08-06T03:08:18;36.50;34.75;22.75
69746;PMS7003;57018;50.278;19.134;2022-08-06T03:10:46;32.50;32.00;21.50
69746;PMS7003;57018;50.278;19.134;2022-08-06T03:13:13;36.00;33.00;21.50
69746;PMS7003;57018;50.278;19.134;2022-08-06T03:15:42;34.25;33.00;21.25
69746;PMS7003;57018;50.278;19.134;2022-08-06T03:18:09;34.25;31.25;22.00
69746;PMS7003;57018;50.278;19.134;2022-08-06T03:20:42;33.50;31.25;21.75
69746;PMS7003;57018;50.278;19.134;2022-08-06T03:23:07;26.25;26.25;19.00
69746;PMS7003;57018;50.278;19.134;2022-08-06T03:25:35;35.25;32.50;22.50
69746;PMS7003;57018;50.278;19.134;2022-08-06T03:28:03;30.25;27.50;19.00
69746;PMS7003;57018;50.278;19.134;2022-08-06T03:30:31;33.50;31.00;21.50
69746;PMS7003;57018;50.278;19.134;2022-08-06T03:33:12;26.00;24.50;17.00
69746;PMS7003;57018;50.278;19.134;2022-08-06T03:35:41;23.50;21.75;17.50
69746;PMS7003;57018;50.278;19.134;2022-08-06T03:38:09;27.50;24.50;17.00
69746;PMS7003;57018;50.278;19.134;2022-08-06T03:40:36;25.25;24.50;19.50
69746;PMS7003;57018;50.278;19.134;2022-08-06T03:43:04;22.50;22.50;16.50
69746;PMS7003;57018;50.278;19.134;2022-08-06T03:45:31;23.50;21.25;13.25
69746;PMS7003;57018;50.278;19.134;2022-08-06T03:48:01;20.50;19.75;15.00
69746;PMS7003;57018;50.278;19.134;2022-08-06T03:50:30;21.75;21.75;14.25
69746;PMS7003;57018;50.278;19.134;2022-08-06T03:53:00;20.50;19.25;11.50
69746;PMS7003;57018;50.278;19.134;2022-08-06T03:55:29;21.00;18.00;16.00
69746;PMS7003;57018;50.278;19.134;2022-08-06T03:57:59;20.25;20.25;13.25
69746;PMS7003;57018;50.278;19.134;2022-08-06T04:00:28;21.50;20.75;14.75
69746;PMS7003;57018;50.278;19.134;2022-08-06T04:02:57;19.25;19.00;15.25
69746;PMS7003;57018;50.278;19.134;2022-08-06T04:05:26;18.00;18.00;12.25
69746;PMS7003;57018;50.278;19.134;2022-08-06T04:07:54;22.00;21.50;16.50
69746;PMS7003;57018;50.278;19.134;2022-08-06T04:10:28;20.75;19.25;14.25
69746;PMS7003;57018;50.278;19.134;2022-08-06T04:12:52;20.00;20.00;14.75
69746;PMS7003;57018;50.278;19.134;2022-08-06T04:15:20;16.75;16.75;9.25
69746;PMS7003;57018;50.278;19.134;2022-08-06T04:17:46;19.50;19.25;12.25
69746;PMS7003;57018;50.278;19.134;2022-08-06T04:20:16;21.00;20.50;14.50
69746;PMS7003;57018;50.278;19.134;2022-08-06T04:22:45;21.50;20.00;13.25
69746;PMS7003;57018;50.278;19.134;2022-08-06T04:25:11;20.50;19.50;13.50
69746;PMS7003;57018;50.278;19.134;2022-08-06T04:27:38;20.00;20.00;16.25
69746;PMS7003;57018;50.278;19.134;2022-08-06T04:30:07;20.25;20.00;14.75
69746;PMS7003;57018;50.278;19.134;2022-08-06T04:32:34;20.25;17.75;12.25
69746;PMS7003;57018;50.278;19.134;2022-08-06T04:35:04;15.50;15.50;11.75
69746;PMS7003;57018;50.278;19.134;2022-08-06T04:37:33;19.25;16.25;11.50
69746;PMS7003;57018;50.278;19.134;2022-08-06T04:39:59;15.75;15.75;12.50
69746;PMS7003;57018;50.278;19.134;2022-08-06T04:42:26;19.50;18.00;12.50
69746;PMS7003;57018;50.278;19.134;2022-08-06T04:44:53;21.50;21.50;14.75
69746;PMS7003;57018;50.278;19.134;2022-08-06T04:47:21;17.25;17.25;11.75
69746;PMS7003;57018;50.278;19.134;2022-08-06T04:49:48;21.50;20.25;13.75
69746;PMS7003;57018;50.278;19.134;2022-08-06T04:52:24;19.00;18.25;13.50
69746;PMS7003;57018;50.278;19.134;2022-08-06T04:54:52;22.75;22.00;14.50
69746;PMS7003;57018;50.278;19.134;2022-08-06T04:57:18;22.50;20.00;14.50
69746;PMS7003;57018;50.278;19.134;2022-08-06T04:59:44;16.00;15.50;11.50
69746;PMS7003;57018;50.278;19.134;2022-08-06T05:02:11;20.25;18.25;13.25
69746;PMS7003;57018;50.278;19.134;2022-08-06T05:04:38;21.25;20.00;13.50
69746;PMS7003;57018;50.278;19.134;2022-08-06T05:09:44;18.75;16.50;13.75
69746;PMS7003;57018;50.278;19.134;2022-08-06T05:12:16;19.00;19.00;13.00
69746;PMS7003;57018;50.278;19.134;2022-08-06T05:17:41;18.00;18.00;12.75
69746;PMS7003;57018;50.278;19.134;2022-08-06T05:20:14;22.75;22.75;13.25
69746;PMS7003;57018;50.278;19.134;2022-08-06T05:22:43;19.25;19.25;13.50
69746;PMS7003;57018;50.278;19.134;2022-08-06T05:25:12;13.00;12.50;10.25
69746;PMS7003;57018;50.278;19.134;2022-08-06T05:27:39;20.00;18.25;12.50
69746;PMS7003;57018;50.278;19.134;2022-08-06T05:30:06;18.75;18.75;12.75
69746;PMS7003;57018;50.278;19.134;2022-08-06T05:32:43;19.50;17.25;12.00
69746;PMS7003;57018;50.278;19.134;2022-08-06T05:35:11;17.75;17.25;13.25
69746;PMS7003;57018;50.278;19.134;2022-08-06T05:37:37;15.50;15.50;11.75
69746;PMS7003;57018;50.278;19.134;2022-08-06T05:40:05;19.25;17.75;12.75
69746;PMS7003;57018;50.278;19.134;2022-08-06T05:42:32;14.75;13.75;9.25
69746;PMS7003;57018;50.278;19.134;2022-08-06T05:44:59;19.00;19.00;12.25
69746;PMS7003;57018;50.278;19.134;2022-08-06T05:47:27;16.50;16.50;12.75
69746;PMS7003;57018;50.278;19.134;2022-08-06T05:50:02;18.50;18.25;13.00
69746;PMS7003;57018;50.278;19.134;2022-08-06T05:55:03;18.50;18.25;13.75
69746;PMS7003;57018;50.278;19.134;2022-08-06T05:57:45;22.25;20.50;14.50
69746;PMS7003;57018;50.278;19.134;2022-08-06T06:00:14;16.50;16.50;12.25
69746;PMS7003;57018;50.278;19.134;2022-08-06T06:02:43;20.25;16.75;12.00
69746;PMS7003;57018;50.278;19.134;2022-08-06T06:05:12;20.25;18.50;13.75
69746;PMS7003;57018;50.278;19.134;2022-08-06T06:07:40;13.75;13.00;8.25
69746;PMS7003;57018;50.278;19.134;2022-08-06T06:10:08;19.25;17.50;12.25
69746;PMS7003;57018;50.278;19.134;2022-08-06T06:12:35;12.00;12.00;9.25
69746;PMS7003;57018;50.278;19.134;2022-08-06T06:15:03;19.50;15.25;11.50
69746;PMS7003;57018;50.278;19.134;2022-08-06T06:23:29;17.75;15.75;10.50
69746;PMS7003;57018;50.278;19.134;2022-08-06T06:26:28;17.00;17.00;10.50
69746;PMS7003;57018;50.278;19.134;2022-08-06T06:34:23;17.75;15.50;12.00
69746;PMS7003;57018;50.278;19.134;2022-08-06T06:36:57;14.25;13.50;9.75
69746;PMS7003;57018;50.278;19.134;2022-08-06T06:39:36;16.00;14.25;11.00
69746;PMS7003;57018;50.278;19.134;2022-08-06T06:42:09;15.50;15.50;11.25
69746;PMS7003;57018;50.278;19.134;2022-08-06T06:44:39;11.00;10.00;7.00
69746;PMS7003;57018;50.278;19.134;2022-08-06T06:47:10;11.75;11.75;9.00
69746;PMS7003;57018;50.278;19.134;2022-08-06T06:49:43;17.25;15.00;10.50
69746;PMS7003;57018;50.278;19.134;2022-08-06T06:52:16;18.25;18.00;13.00
69746;PMS7003;57018;50.278;19.134;2022-08-06T06:54:52;13.25;13.25;9.75
69746;PMS7003;57018;50.278;19.134;2022-08-06T06:57:31;15.00;14.00;11.50
69746;PMS7003;57018;50.278;19.134;2022-08-06T06:59:51;18.50;16.50;11.75
69746;PMS7003;57018;50.278;19.134;2022-08-06T07:02:21;15.75;14.00;10.75
69746;PMS7003;57018;50.278;19.134;2022-08-06T07:04:49;12.00;12.00;8.50
69746;PMS7003;57018;50.278;19.134;2022-08-06T07:07:18;17.75;15.00;11.00
69746;PMS7003;57018;50.278;19.134;2022-08-06T07:09:46;16.00;16.00;12.00
69746;PMS7003;57018;50.278;19.134;2022-08-06T07:12:15;15.00;12.25;10.00
69746;PMS7003;57018;50.278;19.134;2022-08-06T07:14:44;15.75;15.50;11.75
69746;PMS7003;57018;50.278;19.134;2022-08-06T07:17:14;14.00;12.50;9.25
69746;PMS7003;57018;50.278;19.134;2022-08-06T07:19:45;10.50;10.50;6.75
69746;PMS7003;57018;50.278;19.134;2022-08-06T07:22:13;13.25;13.25;9.25
69746;PMS7003;57018;50.278;19.134;2022-08-06T07:24:41;15.00;15.00;11.25
69746;PMS7003;57018;50.278;19.134;2022-08-06T07:27:09;12.75;12.75;10.25
69746;PMS7003;57018;50.278;19.134;2022-08-06T07:29:39;17.00;15.50;10.50
69746;PMS7003;57018;50.278;19.134;2022-08-06T07:32:09;12.50;12.50;10.50
69746;PMS7003;57018;50.278;19.134;2022-08-06T07:34:37;14.50;13.50;11.00
69746;PMS7003;57018;50.278;19.134;2022-08-06T07:37:06;14.25;13.75;9.25
69746;PMS7003;57018;50.278;19.134;2022-08-06T07:39:33;11.25;11.25;8.00
69746;PMS7003;57018;50.278;19.134;2022-08-06T07:42:06;14.50;11.25;9.25
69746;PMS7003;57018;50.278;19.134;2022-08-06T07:44:34;13.75;13.75;9.25
69746;PMS7003;57018;50.278;19.134;2022-08-06T07:47:02;17.25;15.50;12.00
69746;PMS7003;57018;50.278;19.134;2022-08-06T07:49:35;14.75;14.25;11.25
69746;PMS7003;57018;50.278;19.134;2022-08-06T07:52:00;18.75;15.50;10.75
69746;PMS7003;57018;50.278;19.134;2022-08-06T07:54:28;15.50;14.00;11.00
69746;PMS7003;57018;50.278;19.134;2022-08-06T07:56:56;14.25;14.25;10.50
69746;PMS7003;57018;50.278;19.134;2022-08-06T07:59:23;11.00;11.00;7.50
69746;PMS7003;57018;50.278;19.134;2022-08-06T08:01:51;10.00;9.50;7.50
69746;PMS7003;57018;50.278;19.134;2022-08-06T08:04:17;10.25;9.50;8.75
69746;PMS7003;57018;50.278;19.134;2022-08-06T08:07:04;9.00;8.00;5.00
69746;PMS7003;57018;50.278;19.134;2022-08-06T08:09:31;7.25;7.25;5.00
69746;PMS7003;57018;50.278;19.134;2022-08-06T08:11:59;7.00;7.00;5.75
69746;PMS7003;57018;50.278;19.134;2022-08-06T08:14:26;7.25;6.50;5.00
69746;PMS7003;57018;50.278;19.134;2022-08-06T08:16:53;9.50;6.25;4.75
69746;PMS7003;57018;50.278;19.134;2022-08-06T08:19:20;5.00;5.00;4.25
69746;PMS7003;57018;50.278;19.134;2022-08-06T08:22:16;2.50;2.50;2.25
69746;PMS7003;57018;50.278;19.134;2022-08-06T08:24:46;0.50;0.50;0.50
69746;PMS7003;57018;50.278;19.134;2022-08-06T08:27:15;0.25;0.25;0.25
69746;PMS7003;57018;50.278;19.134;2022-08-06T08:29:41;1.50;1.00;1.00
69746;PMS7003;57018;50.278;19.134;2022-08-06T08:32:08;0.00;0.00;0.00
69746;PMS7003;57018;50.278;19.134;2022-08-06T08:34:35;0.00;0.00;0.00
69746;PMS7003;57018;50.278;19.134;2022-08-06T08:37:02;0.00;0.00;0.00
69746;PMS7003;57018;50.278;19.134;2022-08-06T08:39:29;0.50;0.50;0.50
69746;PMS7003;57018;50.278;19.134;2022-08-06T08:42:10;1.00;1.00;1.00
69746;PMS7003;57018;50.278;19.134;2022-08-06T08:44:37;0.25;0.25;0.00
69746;PMS7003;57018;50.278;19.134;2022-08-06T08:47:05;0.00;0.00;0.00
69746;PMS7003;57018;50.278;19.134;2022-08-06T08:49:39;2.25;1.25;1.00
69746;PMS7003;57018;50.278;19.134;2022-08-06T08:52:08;1.00;1.00;1.00
69746;PMS7003;57018;50.278;19.134;2022-08-06T08:54:36;1.00;1.00;1.00
69746;PMS7003;57018;50.278;19.134;2022-08-06T08:57:06;1.00;1.00;0.00
69746;PMS7003;57018;50.278;19.134;2022-08-06T08:59:38;2.00;1.25;0.75
69746;PMS7003;57018;50.278;19.134;2022-08-06T09:02:02;1.00;1.00;1.00
69746;PMS7003;57018;50.278;19.134;2022-08-06T09:04:31;1.00;1.00;1.00
69746;PMS7003;57018;50.278;19.134;2022-08-06T09:06:58;3.00;1.25;1.00
69746;PMS7003;57018;50.278;19.134;2022-08-06T09:09:24;2.00;2.00;1.00
69746;PMS7003;57018;50.278;19.134;2022-08-06T09:11:52;3.00;3.00;2.00
69746;PMS7003;57018;50.278;19.134;2022-08-06T09:14:19;3.00;3.00;2.25
69746;PMS7003;57018;50.278;19.134;2022-08-06T09:16:47;2.00;2.00;2.00
69746;PMS7003;57018;50.278;19.134;2022-08-06T09:19:15;4.00;4.00;3.00
69746;PMS7003;57018;50.278;19.134;2022-08-06T09:21:42;3.75;3.75;3.00
69746;PMS7003;57018;50.278;19.134;2022-08-06T09:24:09;4.25;4.25;2.00
69746;PMS7003;57018;50.278;19.134;2022-08-06T18:54:37;11.00;11.00;8.50
69746;PMS7003;57018;50.278;19.134;2022-08-06T18:57:06;11.75;11.75;8.50
69746;PMS7003;57018;50.278;19.134;2022-08-06T18:59:32;14.25;14.25;9.75
69746;PMS7003;57018;50.278;19.134;2022-08-06T19:01:58;11.50;11.50;8.25
69746;PMS7003;57018;50.278;19.134;2022-08-06T19:04:24;15.25;15.00;10.25
69746;PMS7003;57018;50.278;19.134;2022-08-06T19:06:52;13.75;10.25;7.50
69746;PMS7003;57018;50.278;19.134;2022-08-06T19:09:18;14.25;11.75;9.00
69746;PMS7003;57018;50.278;19.134;2022-08-06T19:11:44;14.50;12.50;9.00
69746;PMS7003;57018;50.278;19.134;2022-08-06T19:14:10;11.00;10.50;9.25
69746;PMS7003;57018;50.278;19.134;2022-08-06T19:16:36;12.00;12.00;9.75
69746;PMS7003;57018;50.278;19.134;2022-08-06T19:19:03;13.00;11.00;9.75
69746;PMS7003;57018;50.278;19.134;2022-08-06T19:21:30;13.75;11.00;8.75
69746;PMS7003;57018;50.278;19.134;2022-08-06T19:23:56;12.25;12.25;9.25
69746;PMS7003;57018;50.278;19.134;2022-08-06T19:26:22;10.00;10.00;8.00
69746;PMS7003;57018;50.278;19.134;2022-08-06T19:28:48;13.50;11.25;8.75
69746;PMS7003;57018;50.278;19.134;2022-08-06T19:31:14;12.75;12.75;9.50
69746;PMS7003;57018;50.278;19.134;2022-08-06T19:33:42;14.75;14.75;10.75
69746;PMS7003;57018;50.278;19.134;2022-08-06T19:36:09;15.25;14.00;10.25
69746;PMS7003;57018;50.278;19.134;2022-08-06T19:38:35;17.00;14.50;10.25
69746;PMS7003;57018;50.278;19.134;2022-08-06T19:41:02;11.75;11.75;9.50
69746;PMS7003;57018;50.278;19.134;2022-08-06T19:43:28;14.00;14.00;9.50
69746;PMS7003;57018;50.278;19.134;2022-08-06T19:45:54;12.50;12.50;8.75
69746;PMS7003;57018;50.278;19.134;2022-08-06T19:48:20;14.50;14.50;10.50
69746;PMS7003;57018;50.278;19.134;2022-08-06T19:50:47;15.00;12.75;10.50
69746;PMS7003;57018;50.278;19.134;2022-08-06T19:53:13;12.00;12.00;9.25
69746;PMS7003;57018;50.278;19.134;2022-08-06T19:55:40;15.00;15.00;11.25
69746;PMS7003;57018;50.278;19.134;2022-08-06T19:58:06;13.00;13.00;9.25
69746;PMS7003;57018;50.278;19.134;2022-08-06T20:00:33;17.00;15.25;11.25
69746;PMS7003;57018;50.278;19.134;2022-08-06T20:03:00;15.25;13.25;10.50
69746;PMS7003;57018;50.278;19.134;2022-08-06T20:05:26;15.25;13.75;9.50
69746;PMS7003;57018;50.278;19.134;2022-08-06T20:07:52;13.25;13.25;10.75
69746;PMS7003;57018;50.278;19.134;2022-08-06T20:10:19;14.25;13.25;10.00
69746;PMS7003;57018;50.278;19.134;2022-08-06T20:12:46;13.00;13.00;9.00
69746;PMS7003;57018;50.278;19.134;2022-08-06T20:15:13;10.50;10.50;9.00
69746;PMS7003;57018;50.278;19.134;2022-08-06T20:17:42;14.50;14.50;10.00
69746;PMS7003;57018;50.278;19.134;2022-08-06T20:20:10;18.00;16.25;10.75
69746;PMS7003;57018;50.278;19.134;2022-08-06T20:22:38;15.25;15.25;11.00
69746;PMS7003;57018;50.278;19.134;2022-08-06T20:25:05;15.00;15.00;10.75
69746;PMS7003;57018;50.278;19.134;2022-08-06T20:27:33;14.75;12.75;9.25
69746;PMS7003;57018;50.278;19.134;2022-08-06T20:29:59;12.25;12.25;8.75
69746;PMS7003;57018;50.278;19.134;2022-08-06T20:32:26;17.50;15.25;11.00
69746;PMS7003;57018;50.278;19.134;2022-08-06T20:34:54;16.25;15.50;10.50
69746;PMS7003;57018;50.278;19.134;2022-08-06T20:37:20;12.50;10.75;9.50
69746;PMS7003;57018;50.278;19.134;2022-08-06T20:39:46;11.50;11.50;9.25
69746;PMS7003;57018;50.278;19.134;2022-08-06T20:42:12;14.25;12.50;9.75
69746;PMS7003;57018;50.278;19.134;2022-08-06T20:44:39;12.00;12.00;10.25
69746;PMS7003;57018;50.278;19.134;2022-08-06T20:47:05;14.75;14.75;10.25
69746;PMS7003;57018;50.278;19.134;2022-08-06T20:49:34;14.25;11.50;10.00
69746;PMS7003;57018;50.278;19.134;2022-08-06T20:52:01;12.00;12.00;9.25
69746;PMS7003;57018;50.278;19.134;2022-08-06T20:54:32;13.50;13.50;8.75
69746;PMS7003;57018;50.278;19.134;2022-08-06T20:56:56;10.75;10.75;8.50
69746;PMS7003;57018;50.278;19.134;2022-08-06T20:59:22;13.00;13.00;9.25
69746;PMS7003;57018;50.278;19.134;2022-08-06T21:01:50;15.50;15.25;9.50
69746;PMS7003;57018;50.278;19.134;2022-08-06T21:04:17;11.25;10.00;8.50
69746;PMS7003;57018;50.278;19.134;2022-08-06T21:06:43;14.25;14.00;10.50
69746;PMS7003;57018;50.278;19.134;2022-08-06T21:09:09;14.50;14.25;9.75
69746;PMS7003;57018;50.278;19.134;2022-08-06T21:11:36;12.50;12.00;9.50
69746;PMS7003;57018;50.278;19.134;2022-08-06T21:14:02;15.75;15.75;13.25
69746;PMS7003;57018;50.278;19.134;2022-08-06T21:16:31;16.25;16.25;10.75
69746;PMS7003;57018;50.278;19.134;2022-08-06T21:18:57;15.75;14.25;10.25
69746;PMS7003;57018;50.278;19.134;2022-08-06T21:21:23;15.00;15.00;9.75
69746;PMS7003;57018;50.278;19.134;2022-08-06T21:23:50;14.50;14.50;10.75
69746;PMS7003;57018;50.278;19.134;2022-08-06T21:26:16;9.50;8.00;7.50
69746;PMS7003;57018;50.278;19.134;2022-08-06T21:28:45;14.75;14.75;10.00
69746;PMS7003;57018;50.278;19.134;2022-08-06T21:31:11;14.25;13.75;9.50
69746;PMS7003;57018;50.278;19.134;2022-08-06T21:33:38;18.75;16.25;10.75
69746;PMS7003;57018;50.278;19.134;2022-08-06T21:36:06;15.50;15.50;11.50
69746;PMS7003;57018;50.278;19.134;2022-08-06T21:38:32;12.25;11.50;9.25
69746;PMS7003;57018;50.278;19.134;2022-08-06T21:41:01;17.00;17.00;13.00
69746;PMS7003;57018;50.278;19.134;2022-08-06T21:43:29;18.00;18.00;14.50
69746;PMS7003;57018;50.278;19.134;2022-08-06T21:45:55;21.25;17.25;12.00
69746;PMS7003;57018;50.278;19.134;2022-08-06T21:48:22;19.75;16.00;13.50
69746;PMS7003;57018;50.278;19.134;2022-08-06T21:50:48;14.75;14.25;9.75
69746;PMS7003;57018;50.278;19.134;2022-08-06T21:53:14;18.00;15.75;13.25
69746;PMS7003;57018;50.278;19.134;2022-08-06T21:55:40;14.25;14.00;10.25
69746;PMS7003;57018;50.278;19.134;2022-08-06T21:58:06;12.50;12.50;8.25
69746;PMS7003;57018;50.278;19.134;2022-08-06T22:00:35;15.00;15.00;11.50
69746;PMS7003;57018;50.278;19.134;2022-08-06T22:03:09;16.75;13.75;10.25
69746;PMS7003;57018;50.278;19.134;2022-08-06T22:05:38;23.00;19.00;13.50
69746;PMS7003;57018;50.278;19.134;2022-08-06T22:08:04;14.00;13.50;8.00
69746;PMS7003;57018;50.278;19.134;2022-08-06T22:10:31;14.50;14.25;10.75
69746;PMS7003;57018;50.278;19.134;2022-08-06T22:12:58;13.50;13.50;9.00
69746;PMS7003;57018;50.278;19.134;2022-08-06T22:15:26;20.00;17.25;12.25
69746;PMS7003;57018;50.278;19.134;2022-08-06T22:17:53;17.00;14.25;11.75
69746;PMS7003;57018;50.278;19.134;2022-08-06T22:20:20;17.25;15.75;11.25
69746;PMS7003;57018;50.278;19.134;2022-08-06T22:22:46;16.75;15.00;13.00
69746;PMS7003;57018;50.278;19.134;2022-08-06T22:25:12;17.25;17.25;13.25
69746;PMS7003;57018;50.278;19.134;2022-08-06T22:27:38;16.75;16.75;12.50
69746;PMS7003;57018;50.278;19.134;2022-08-06T22:30:05;19.25;18.75;12.75
69746;PMS7003;57018;50.278;19.134;2022-08-06T22:32:51;20.75;17.75;14.50
69746;PMS7003;57018;50.278;19.134;2022-08-06T22:35:17;19.50;16.25;13.00
69746;PMS7003;57018;50.278;19.134;2022-08-06T22:37:43;9.75;9.75;7.25
69746;PMS7003;57018;50.278;19.134;2022-08-06T22:40:10;21.50;20.00;14.25
69746;PMS7003;57018;50.278;19.134;2022-08-06T22:42:37;14.75;14.75;10.25
69746;PMS7003;57018;50.278;19.134;2022-08-06T22:45:04;17.00;17.00;14.25
69746;PMS7003;57018;50.278;19.134;2022-08-06T22:47:31;16.00;14.00;10.50
69746;PMS7003;57018;50.278;19.134;2022-08-06T22:49:58;20.50;16.25;12.25
69746;PMS7003;57018;50.278;19.134;2022-08-06T22:52:24;22.25;17.75;13.00
69746;PMS7003;57018;50.278;19.134;2022-08-06T22:54:51;17.00;16.50;13.50
69746;PMS7003;57018;50.278;19.134;2022-08-06T22:57:17;18.25;17.50;11.75
69746;PMS7003;57018;50.278;19.134;2022-08-06T22:59:43;15.25;15.25;11.25
69746;PMS7003;57018;50.278;19.134;2022-08-06T23:02:09;16.75;14.75;9.50
69746;PMS7003;57018;50.278;19.134;2022-08-06T23:04:35;17.25;16.50;12.50
69746;PMS7003;57018;50.278;19.134;2022-08-06T23:07:04;19.50;19.50;14.75
69746;PMS7003;57018;50.278;19.134;2022-08-06T23:09:31;19.00;18.75;14.75
69746;PMS7003;57018;50.278;19.134;2022-08-06T23:11:57;30.75;27.50;20.50
69746;PMS7003;57018;50.278;19.134;2022-08-06T23:14:23;36.50;35.75;22.50
69746;PMS7003;57018;50.278;19.134;2022-08-06T23:16:49;34.75;30.25;23.50
69746;PMS7003;57018;50.278;19.134;2022-08-06T23:19:15;34.50;30.50;22.50
69746;PMS7003;57018;50.278;19.134;2022-08-06T23:21:41;33.00;26.75;21.50
69746;PMS7003;57018;50.278;19.134;2022-08-06T23:24:08;32.25;31.00;24.00
69746;PMS7003;57018;50.278;19.134;2022-08-06T23:26:34;33.00;32.25;22.25
69746;PMS7003;57018;50.278;19.134;2022-08-06T23:29:03;35.00;31.50;21.75
69746;PMS7003;57018;50.278;19.134;2022-08-06T23:31:31;35.00;31.75;21.75
69746;PMS7003;57018;50.278;19.134;2022-08-06T23:33:58;31.50;29.50;21.75
69746;PMS7003;57018;50.278;19.134;2022-08-06T23:36:27;34.00;31.50;21.00
69746;PMS7003;57018;50.278;19.134;2022-08-06T23:38:54;27.50;27.50;19.25